createdAt,value
2017-12-19T00:01:24.771Z,79.61
2017-12-19T00:03:57.474Z,80.07
2017-12-19T00:06:31.024Z,80.12
2017-12-19T00:09:03.844Z,80.21
2017-12-19T00:11:36.615Z,80.24
2017-12-19T00:14:09.128Z,79.86
2017-12-19T00:16:41.648Z,79.41
2017-12-19T00:19:14.134Z,79.28
2017-12-19T00:21:49.371Z,79.18
2017-12-19T00:24:21.863Z,79.05
2017-12-19T00:26:54.371Z,79.47
2017-12-19T00:29:27.377Z,80.12
2017-12-19T00:32:00.474Z,80.36
2017-12-19T00:34:33.760Z,80.58
2017-12-19T00:37:06.615Z,80.62
2017-12-19T00:39:39.428Z,80.71
2017-12-19T00:42:13.132Z,80.64
2017-12-19T02:09:51.843Z,80.42
2017-12-19T02:12:24.502Z,81.37
2017-12-19T02:14:57.224Z,82.20
2017-12-19T02:17:29.913Z,82.61
2017-12-19T02:20:02.654Z,83.70
2017-12-19T02:22:35.352Z,83.20
2017-12-19T02:25:07.906Z,84.65
2017-12-19T02:27:40.396Z,86.11
2017-12-19T02:30:13.344Z,86.63
2017-12-19T02:32:47.236Z,87.18
2017-12-19T02:35:20.337Z,87.03
2017-12-19T02:37:53.360Z,87.31
2017-12-19T02:40:26.409Z,87.62
2017-12-19T02:43:10.987Z,87.45
2017-12-19T02:45:43.729Z,87.63
2017-12-19T02:48:18.480Z,87.51
2017-12-19T02:50:51.209Z,87.81
2017-12-19T02:53:24.204Z,87.53
2017-12-19T02:55:57.286Z,86.30
2017-12-19T02:58:30.273Z,85.87
2017-12-19T03:01:03.344Z,85.94
2017-12-19T03:03:38.677Z,86.20
2017-12-19T03:06:11.776Z,86.44
2017-12-19T03:08:44.761Z,87.60
2017-12-19T03:11:17.955Z,87.57
2017-12-19T03:13:50.694Z,87.52
2017-12-19T03:16:23.230Z,87.44
2017-12-19T03:18:56.407Z,87.66
2017-12-19T03:21:29.750Z,87.60
2017-12-19T03:24:03.398Z,88.01
2017-12-19T03:26:36.732Z,88.34
2017-12-19T03:29:09.865Z,88.16
2017-12-19T03:31:42.895Z,88.10
2017-12-19T03:34:16.033Z,87.57
2017-12-19T03:36:48.833Z,87.96
2017-12-19T03:39:21.344Z,88.15
2017-12-19T03:41:53.856Z,87.40
2017-12-19T03:44:26.342Z,86.88
2017-12-19T03:46:58.876Z,86.74
2017-12-19T03:49:31.826Z,86.91
2017-12-19T03:52:04.419Z,86.77
2017-12-19T03:54:37.035Z,86.67
2017-12-19T03:57:09.654Z,86.82
2017-12-19T03:59:42.186Z,86.97
2017-12-19T04:02:14.944Z,86.71
2017-12-19T04:04:47.427Z,86.68
2017-12-19T04:07:19.992Z,86.63
2017-12-19T04:09:52.474Z,86.57
2017-12-19T04:12:24.988Z,87.13
2017-12-19T04:14:57.492Z,87.01
2017-12-19T04:17:30.019Z,86.79
2017-12-19T04:20:02.496Z,86.82
2017-12-19T04:22:35.009Z,87.12
2017-12-19T04:25:07.553Z,87.22
2017-12-19T04:27:40.165Z,86.73
2017-12-19T04:30:12.656Z,87.09
2017-12-19T04:32:46.800Z,87.24
2017-12-19T04:35:20.272Z,87.13
2017-12-19T04:37:53.439Z,87.42
2017-12-19T04:40:25.985Z,84.20
2017-12-19T04:42:58.517Z,82.72
2017-12-19T04:45:30.999Z,81.77
2017-12-19T04:48:03.776Z,81.65
2017-12-19T04:50:36.259Z,80.93
2017-12-19T04:53:08.780Z,80.95
2017-12-19T04:55:41.267Z,80.47
2017-12-19T04:58:13.783Z,80.98
2017-12-19T05:00:47.193Z,80.22
2017-12-19T05:03:19.704Z,79.47
2017-12-19T05:05:52.191Z,81.04
2017-12-19T05:08:24.899Z,80.71
2017-12-19T05:10:57.374Z,80.49
2017-12-19T05:13:29.879Z,80.41
2017-12-19T05:16:02.439Z,80.37
2017-12-19T05:18:34.954Z,80.49
2017-12-19T05:21:07.436Z,80.81
2017-12-19T05:23:39.940Z,80.74
2017-12-19T05:26:12.523Z,80.66
2017-12-19T05:28:47.191Z,80.58
2017-12-19T05:31:19.765Z,80.54
2017-12-19T05:33:52.412Z,80.63
2017-12-19T05:36:26.015Z,80.71
2017-12-19T05:38:58.616Z,80.62
2017-12-19T05:41:31.374Z,80.79
2017-12-19T05:44:03.981Z,81.60
2017-12-19T05:46:37.257Z,81.92
2017-12-19T05:49:10.191Z,82.14
2017-12-19T05:51:42.750Z,81.81
2017-12-19T05:54:16.665Z,81.93
2017-12-19T05:56:49.149Z,81.81
2017-12-19T05:59:21.661Z,82.11
2017-12-19T06:01:54.159Z,83.02
2017-12-19T06:04:26.671Z,84.03
2017-12-19T06:06:59.176Z,84.71
2017-12-19T06:09:31.703Z,85.36
2017-12-19T06:12:04.204Z,85.74
2017-12-19T06:14:36.735Z,86.61
2017-12-19T06:17:09.220Z,87.32
2017-12-19T06:19:41.790Z,88.14
2017-12-19T06:22:14.328Z,88.60
2017-12-19T06:24:50.129Z,88.82
2017-12-19T06:27:22.627Z,88.76
2017-12-19T06:29:55.186Z,88.69
2017-12-19T06:32:27.685Z,89.17
2017-12-19T06:35:00.210Z,88.86
2017-12-19T06:37:32.702Z,88.64
2017-12-19T06:40:05.232Z,88.91
2017-12-19T06:42:37.728Z,88.88
2017-12-19T06:45:10.300Z,88.73
2017-12-19T06:47:42.804Z,88.89
2017-12-19T06:50:16.513Z,89.68
2017-12-19T06:52:49.006Z,89.51
2017-12-19T06:55:22.396Z,89.76
2017-12-19T06:57:54.884Z,89.35
2017-12-19T07:00:27.396Z,89.30
2017-12-19T07:02:59.892Z,89.26
2017-12-19T07:05:32.430Z,89.71
2017-12-19T07:08:04.939Z,89.81
2017-12-19T07:10:37.454Z,89.60
2017-12-19T07:13:09.935Z,89.32
2017-12-19T07:15:42.447Z,89.55
2017-12-19T07:18:17.056Z,89.53
2017-12-19T07:20:50.611Z,89.28
2017-12-19T07:23:23.105Z,88.71
2017-12-19T07:25:55.619Z,88.42
2017-12-19T07:28:28.117Z,88.84
2017-12-19T07:31:00.633Z,89.28
2017-12-19T07:33:33.125Z,88.87
2017-12-19T07:36:05.634Z,88.92
2017-12-19T07:38:38.119Z,88.62
2017-12-19T07:41:10.636Z,88.90
2017-12-19T07:43:43.126Z,87.19
2017-12-19T07:46:18.017Z,86.23
2017-12-19T07:48:50.514Z,85.80
2017-12-19T07:51:23.033Z,86.27
2017-12-19T07:56:53.004Z,85.39
2017-12-19T07:59:25.502Z,85.70
2017-12-19T08:01:58.021Z,85.72
2017-12-19T08:04:30.517Z,85.58
2017-12-19T08:07:03.044Z,86.62
2017-12-19T08:09:35.539Z,86.28
2017-12-19T08:12:08.065Z,86.00
2017-12-19T08:14:40.558Z,85.82
2017-12-19T08:17:13.076Z,85.86
2017-12-19T08:19:48.058Z,85.79
2017-12-19T08:22:20.585Z,85.67
2017-12-19T08:24:53.087Z,86.10
2017-12-19T08:27:25.615Z,85.67
2017-12-19T08:29:58.121Z,86.01
2017-12-19T08:32:30.667Z,85.90
2017-12-19T08:35:03.268Z,86.12
2017-12-19T08:37:35.789Z,85.80
2017-12-19T08:40:08.280Z,85.74
2017-12-19T08:42:40.789Z,85.59
2017-12-19T08:45:13.281Z,85.84
2017-12-19T08:47:45.799Z,85.72
2017-12-19T08:50:18.318Z,85.82
2017-12-19T08:52:50.827Z,85.80
2017-12-19T08:55:23.438Z,85.87
2017-12-19T08:57:55.946Z,85.56
2017-12-19T09:00:28.792Z,85.25
2017-12-19T09:03:01.453Z,85.01
2017-12-19T09:05:33.973Z,85.15
2017-12-19T09:08:06.494Z,84.88
2017-12-19T09:10:39.003Z,84.71
2017-12-19T09:13:11.508Z,84.23
2017-12-19T09:15:43.999Z,84.22
2017-12-19T09:18:18.113Z,84.45
2017-12-19T09:20:50.627Z,84.33
2017-12-19T09:23:23.135Z,84.49
2017-12-19T09:31:27.450Z,85.22
2017-12-19T09:34:01.984Z,85.33
2017-12-19T09:36:40.683Z,85.24
2017-12-19T09:39:14.717Z,85.19
2017-12-19T09:41:47.489Z,85.23
2017-12-19T09:44:20.122Z,85.34
2017-12-19T09:46:53.883Z,85.33
2017-12-19T09:49:29.354Z,85.39
2017-12-19T09:52:08.157Z,85.38
2017-12-19T09:54:41.454Z,85.23
2017-12-19T09:57:13.958Z,85.35
2017-12-19T09:59:50.187Z,85.12
2017-12-19T10:02:24.998Z,85.12
2017-12-19T10:05:00.083Z,85.10
2017-12-19T10:07:34.943Z,85.11
2017-12-19T10:10:07.634Z,85.37
2017-12-19T10:12:40.135Z,85.83
2017-12-19T10:15:12.672Z,85.79
2017-12-19T10:17:45.237Z,85.95
2017-12-19T10:20:23.662Z,85.94
2017-12-19T10:22:57.811Z,85.85
2017-12-19T10:25:30.841Z,85.83
2017-12-19T10:28:03.421Z,85.97
2017-12-19T10:30:37.553Z,85.93
2017-12-19T10:33:10.085Z,85.89
2017-12-19T10:35:42.610Z,85.89
2017-12-19T10:38:15.183Z,86.02
2017-12-19T10:40:51.872Z,85.67
2017-12-19T10:43:25.315Z,82.64
2017-12-19T10:46:00.508Z,82.26
2017-12-19T10:48:33.445Z,82.26
2017-12-19T10:51:06.464Z,85.29
2017-12-19T10:53:38.988Z,86.71
2017-12-19T10:56:11.546Z,86.76
2017-12-19T10:58:44.104Z,85.39
2017-12-19T11:01:19.065Z,85.24
2017-12-19T11:04:01.069Z,85.25
2017-12-19T11:06:36.916Z,85.07
2017-12-19T11:09:09.488Z,84.98
2017-12-19T11:11:42.318Z,85.53
2017-12-19T11:14:14.858Z,86.80
2017-12-19T11:16:49.007Z,87.37
2017-12-19T11:19:24.238Z,87.51
2017-12-19T11:21:57.722Z,87.55
2017-12-19T11:24:36.555Z,87.45
2017-12-19T11:27:09.071Z,87.60
2017-12-19T11:29:41.651Z,87.81
2017-12-19T11:32:14.404Z,87.46
2017-12-19T11:34:47.894Z,87.01
2017-12-19T11:37:21.643Z,86.77
2017-12-19T11:39:54.260Z,86.89
2017-12-19T11:42:27.061Z,87.16
2017-12-19T11:44:59.763Z,87.88
2017-12-19T11:47:33.145Z,87.44
2017-12-19T11:50:05.726Z,87.20
2017-12-19T11:52:38.337Z,87.24
2017-12-19T11:55:10.860Z,87.93
2017-12-19T11:57:43.428Z,88.10
2017-12-19T12:00:16.386Z,87.31
2017-12-19T12:02:51.714Z,86.47
2017-12-19T12:05:24.366Z,86.30
2017-12-19T12:07:56.864Z,86.17
2017-12-19T12:10:29.405Z,85.86
2017-12-19T12:13:02.052Z,86.22
2017-12-19T12:15:34.572Z,86.10
2017-12-19T12:18:07.083Z,85.96
2017-12-19T12:20:39.605Z,86.16
2017-12-19T12:23:12.110Z,86.09
2017-12-19T12:25:44.640Z,85.93
2017-12-19T12:28:17.883Z,85.93
2017-12-19T12:30:51.210Z,85.93
2017-12-19T12:33:23.934Z,86.13
2017-12-19T12:35:56.552Z,85.93
2017-12-19T12:38:29.154Z,85.83
2017-12-19T12:41:01.882Z,86.27
2017-12-19T12:43:34.371Z,87.90
2017-12-19T12:46:06.895Z,88.23
2017-12-19T12:48:39.408Z,88.14
2017-12-19T12:51:11.928Z,87.93
2017-12-19T12:53:44.431Z,87.89
2017-12-19T12:56:17.464Z,87.76
2017-12-19T12:58:50.102Z,87.67
2017-12-19T13:01:22.653Z,87.65
2017-12-19T13:03:55.388Z,87.45
2017-12-19T13:06:27.957Z,87.46
2017-12-19T13:09:00.521Z,87.83
2017-12-19T13:11:33.027Z,87.76
2017-12-19T13:14:05.789Z,87.65
2017-12-19T13:16:38.420Z,87.79
2017-12-19T13:19:10.923Z,87.88
2017-12-19T13:21:47.296Z,87.89
2017-12-19T13:24:20.178Z,87.94
2017-12-19T13:26:52.850Z,87.98
2017-12-19T13:29:25.330Z,87.66
2017-12-19T13:31:58.345Z,87.66
2017-12-19T13:34:30.868Z,87.64
2017-12-19T13:37:03.413Z,87.34
2017-12-19T13:39:35.920Z,87.38
2017-12-19T13:42:08.444Z,87.23
2017-12-19T13:44:40.957Z,87.04
2017-12-19T13:47:13.515Z,86.99
2017-12-19T13:49:47.064Z,86.87
2017-12-19T13:52:20.037Z,86.94
2017-12-19T13:54:53.126Z,86.92
2017-12-19T13:57:26.092Z,87.15
2017-12-19T13:59:58.697Z,87.41
2017-12-19T14:02:31.361Z,87.63
2017-12-19T14:05:03.872Z,87.63
2017-12-19T14:07:36.402Z,87.73
2017-12-19T14:10:08.904Z,87.70
2017-12-19T14:12:41.421Z,87.57
2017-12-19T14:15:13.932Z,84.50
2017-12-19T14:17:46.540Z,83.58
2017-12-19T14:20:21.287Z,83.26
2017-12-19T14:22:53.940Z,83.09
2017-12-19T14:25:26.448Z,82.90
2017-12-19T14:27:58.994Z,82.45
2017-12-19T14:30:31.516Z,82.51
2017-12-19T14:33:04.046Z,82.34
2017-12-19T14:35:36.531Z,82.60
2017-12-19T14:38:09.123Z,82.57
2017-12-19T14:40:41.716Z,82.79
2017-12-19T14:43:14.324Z,82.84
2017-12-19T14:45:47.862Z,82.64
2017-12-19T14:48:20.840Z,82.88
2017-12-19T14:50:53.379Z,82.91
2017-12-19T14:53:25.947Z,83.01
2017-12-19T14:55:58.517Z,83.46
2017-12-19T14:58:31.079Z,83.52
2017-12-19T15:01:03.561Z,83.69
2017-12-19T15:03:36.082Z,83.67
2017-12-19T15:06:08.594Z,83.63
2017-12-19T15:08:41.136Z,83.33
2017-12-19T15:11:13.632Z,83.57
2017-12-19T15:13:47.837Z,83.67
2017-12-19T15:16:20.492Z,83.50
2017-12-19T15:18:53.211Z,83.44
2017-12-19T15:21:25.776Z,83.43
2017-12-19T15:23:58.411Z,83.19
2017-12-19T15:26:30.930Z,83.04
2017-12-19T15:29:03.444Z,83.62
2017-12-19T15:31:36.098Z,83.42
2017-12-19T15:34:08.799Z,83.65
2017-12-19T15:36:41.282Z,83.72
2017-12-19T15:39:13.807Z,83.79
2017-12-19T15:41:46.576Z,83.83
2017-12-19T15:44:19.109Z,83.58
2017-12-19T15:46:52.396Z,83.56
2017-12-19T15:49:25.143Z,83.47
2017-12-19T15:51:57.769Z,83.24
2017-12-19T15:54:30.369Z,83.37
2017-12-19T15:57:02.949Z,83.38
2017-12-19T15:59:35.476Z,83.33
2017-12-19T16:02:07.975Z,83.07
2017-12-19T16:04:40.484Z,82.99
2017-12-19T16:07:13.025Z,82.88
2017-12-19T16:09:45.548Z,82.76
2017-12-19T16:12:19.088Z,82.72
2017-12-19T16:14:51.624Z,82.76
2017-12-19T16:17:24.180Z,82.71
2017-12-19T16:19:56.786Z,82.76
2017-12-19T16:22:30.426Z,82.97
2017-12-19T16:25:03.089Z,83.06
2017-12-19T16:27:35.629Z,83.01
2017-12-19T16:30:08.137Z,83.08
2017-12-19T16:32:40.638Z,82.93
2017-12-19T16:35:13.275Z,82.86
2017-12-19T16:37:45.772Z,82.90
2017-12-19T16:40:19.033Z,82.91
2017-12-19T16:42:51.531Z,82.73
2017-12-19T16:45:24.692Z,82.65
2017-12-19T16:47:57.342Z,82.79
2017-12-19T16:50:29.944Z,82.77
2017-12-19T16:53:02.466Z,82.73
2017-12-19T16:55:34.975Z,82.84
2017-12-19T16:58:07.485Z,82.85
2017-12-19T17:00:40.010Z,82.80
2017-12-19T17:03:12.507Z,82.84
2017-12-19T17:05:45.101Z,82.77
2017-12-19T17:08:17.796Z,82.93
2017-12-19T17:10:51.210Z,82.97
2017-12-19T17:13:23.759Z,83.14
2017-12-19T17:15:56.427Z,83.12
2017-12-19T17:18:28.962Z,83.11
2017-12-19T17:21:01.554Z,83.14
2017-12-19T17:23:34.107Z,83.28
2017-12-19T17:26:06.709Z,83.07
2017-12-19T17:28:39.205Z,82.87
2017-12-19T17:31:11.726Z,82.80
2017-12-19T17:33:44.277Z,82.87
2017-12-19T17:36:17.515Z,82.89
2017-12-19T17:38:50.034Z,82.94
2017-12-19T17:41:22.558Z,83.11
2017-12-19T17:43:55.094Z,83.12
2017-12-19T17:46:27.660Z,83.41
2017-12-19T17:49:00.281Z,83.16
2017-12-19T17:51:32.829Z,83.13
2017-12-19T17:54:05.360Z,83.32
2017-12-19T17:56:37.860Z,83.58
2017-12-19T17:59:10.367Z,83.48
2017-12-19T18:01:42.905Z,83.06
2017-12-19T18:04:15.428Z,83.21
2017-12-19T18:06:48.855Z,83.07
2017-12-19T18:09:21.361Z,82.97
2017-12-19T18:11:53.897Z,82.88
2017-12-19T18:14:26.410Z,82.78
2017-12-19T18:16:58.930Z,83.09
2017-12-19T18:19:31.436Z,83.10
2017-12-19T18:22:03.955Z,83.13
2017-12-19T18:24:36.464Z,83.14
2017-12-19T18:27:08.976Z,83.47
2017-12-19T18:29:41.473Z,83.08
2017-12-19T18:32:14.017Z,83.12
2017-12-19T18:34:46.538Z,83.00
2017-12-19T18:37:19.607Z,82.96
2017-12-19T18:39:52.610Z,82.84
2017-12-19T18:42:25.134Z,82.87
2017-12-19T18:44:57.859Z,83.24
2017-12-19T18:47:30.499Z,83.23
2017-12-19T18:50:03.181Z,83.09
2017-12-19T18:52:35.791Z,83.59
2017-12-19T18:55:08.297Z,83.40
2017-12-19T18:57:40.810Z,83.17
2017-12-19T19:00:13.652Z,82.95
2017-12-19T19:02:47.196Z,82.95
2017-12-19T19:05:19.796Z,82.89
2017-12-19T19:07:52.422Z,82.74
2017-12-19T19:10:24.919Z,82.89
2017-12-19T19:12:57.432Z,82.98
2017-12-19T19:15:29.941Z,83.05
2017-12-19T19:18:02.566Z,83.07
2017-12-19T19:20:35.078Z,83.08
2017-12-19T19:23:07.594Z,82.97
2017-12-19T19:25:40.091Z,82.97
2017-12-19T19:28:12.599Z,82.96
2017-12-19T19:30:45.092Z,82.93
2017-12-19T19:33:17.615Z,83.05
2017-12-19T19:35:50.225Z,83.17
2017-12-19T19:38:22.889Z,83.16
2017-12-19T19:40:55.499Z,83.18
2017-12-19T19:43:28.084Z,83.19
2017-12-19T19:46:00.583Z,83.24
2017-12-19T19:48:33.096Z,83.29
2017-12-19T19:51:05.669Z,83.29
2017-12-19T19:53:38.186Z,83.28
2017-12-19T19:56:10.682Z,83.26
2017-12-19T19:58:43.267Z,83.15
2017-12-19T20:01:15.766Z,82.92
2017-12-19T20:03:49.281Z,82.94
2017-12-19T20:06:21.879Z,83.19
2017-12-19T20:08:54.590Z,83.08
2017-12-19T20:11:27.148Z,83.16
2017-12-19T20:13:59.672Z,83.23
2017-12-19T20:16:32.198Z,83.04
2017-12-19T20:19:04.743Z,83.11
2017-12-19T20:21:37.238Z,82.93
2017-12-19T20:24:09.760Z,83.06
2017-12-19T20:26:42.246Z,83.03
2017-12-19T20:29:14.799Z,83.28
2017-12-19T20:31:47.760Z,83.25
2017-12-19T20:34:20.285Z,83.25
2017-12-19T20:36:52.818Z,83.27
2017-12-19T20:39:25.349Z,83.10
2017-12-19T20:41:57.991Z,83.07
2017-12-19T20:44:30.504Z,83.04
2017-12-19T20:47:02.983Z,83.10
2017-12-19T20:49:37.548Z,83.07
2017-12-19T20:52:10.058Z,82.76
2017-12-19T20:54:42.559Z,82.76
2017-12-19T20:57:15.048Z,83.14
2017-12-19T20:59:47.653Z,82.86
2017-12-19T21:02:20.546Z,82.67
2017-12-19T21:04:53.202Z,82.91
2017-12-19T21:07:25.737Z,83.21
2017-12-19T21:09:58.409Z,83.15
2017-12-19T21:12:30.902Z,83.04
2017-12-19T21:15:03.462Z,82.96
2017-12-19T21:17:35.948Z,82.97
2017-12-19T21:20:08.770Z,83.03
2017-12-19T21:22:41.346Z,82.81
2017-12-19T21:25:13.951Z,82.84
2017-12-19T21:27:46.691Z,82.46
2017-12-19T21:30:19.255Z,82.36
2017-12-19T21:32:52.014Z,82.21
2017-12-19T21:35:24.557Z,82.14
2017-12-19T21:37:57.068Z,82.20
2017-12-19T21:40:29.603Z,82.14
2017-12-19T21:43:02.115Z,82.14
2017-12-19T21:45:34.631Z,82.30
2017-12-19T21:48:07.128Z,82.28
2017-12-19T21:50:39.638Z,83.59
2017-12-19T21:53:12.141Z,84.17
2017-12-19T21:55:44.658Z,84.15
2017-12-19T21:58:17.157Z,84.03
2017-12-19T22:00:50.524Z,83.87
2017-12-19T22:03:23.263Z,84.00
2017-12-19T22:05:55.807Z,84.17
2017-12-19T22:08:28.368Z,84.05
2017-12-19T22:11:01.927Z,83.83
2017-12-19T22:13:34.420Z,83.72
2017-12-19T22:16:06.997Z,83.57
2017-12-19T22:18:39.493Z,83.43
2017-12-19T22:21:12.007Z,83.32
2017-12-19T22:23:44.502Z,83.30
2017-12-19T22:26:17.029Z,83.23
2017-12-19T22:28:56.180Z,83.13
2017-12-19T22:31:23.732Z,83.48
2017-12-19T22:33:56.636Z,83.94
2017-12-19T22:36:29.204Z,84.13
2017-12-19T22:39:01.707Z,83.65
2017-12-19T22:41:34.229Z,83.31
2017-12-19T22:44:09.408Z,83.05
2017-12-19T22:46:42.109Z,83.29
2017-12-19T22:49:14.664Z,83.84
2017-12-19T22:51:47.184Z,84.15
2017-12-19T22:54:20.454Z,83.61
2017-12-19T22:56:53.149Z,83.58
2017-12-19T22:59:25.809Z,83.47
2017-12-19T23:01:58.358Z,83.31
2017-12-19T23:04:30.887Z,83.28
2017-12-19T23:07:03.384Z,83.42
2017-12-19T23:09:36.028Z,83.24
2017-12-19T23:12:08.519Z,83.05
2017-12-19T23:14:41.031Z,83.81
2017-12-19T23:17:13.524Z,84.16
2017-12-19T23:19:46.041Z,84.31
2017-12-19T23:22:19.544Z,84.23
2017-12-19T23:24:52.065Z,84.40
2017-12-19T23:27:24.860Z,84.94
2017-12-19T23:29:57.384Z,84.77
2017-12-19T23:32:29.883Z,84.96
2017-12-19T23:35:02.400Z,84.90
2017-12-19T23:37:34.901Z,84.68
2017-12-19T23:40:07.415Z,84.55
2017-12-19T23:42:39.920Z,84.34
2017-12-19T23:45:12.427Z,84.37
2017-12-19T23:47:51.220Z,84.04
2017-12-19T23:50:25.564Z,84.09
2017-12-19T23:52:58.206Z,84.18
2017-12-19T23:55:30.808Z,83.79
2017-12-19T23:58:03.684Z,83.49
